createdAt,value
2023-05-21T00:01:07.850Z,18.40
2023-05-21T00:03:36.133Z,18.40
2023-05-21T00:06:03.860Z,18.40
2023-05-21T00:08:31.002Z,18.30
2023-05-21T00:10:57.719Z,18.30
2023-05-21T00:13:24.493Z,18.30
2023-05-21T00:15:51.445Z,18.30
2023-05-21T00:18:18.273Z,18.30
2023-05-21T00:20:45.743Z,18.30
2023-05-21T00:23:12.703Z,18.30
2023-05-21T00:25:39.449Z,18.30
2023-05-21T00:28:06.305Z,18.30
2023-05-21T00:30:33.080Z,18.30
2023-05-21T00:33:02.459Z,18.30
2023-05-21T00:35:29.582Z,18.30
2023-05-21T00:37:56.422Z,18.30
2023-05-21T00:40:23.362Z,18.30
2023-05-21T00:42:50.072Z,18.30
2023-05-21T00:45:16.939Z,18.30
2023-05-21T00:47:44.178Z,18.30
2023-05-21T00:50:11.676Z,18.30
2023-05-21T00:52:41.990Z,18.30
2023-05-21T00:55:10.897Z,18.30
2023-05-21T00:57:38.141Z,18.20
2023-05-21T01:00:08.949Z,18.20
2023-05-21T01:02:37.329Z,18.20
2023-05-21T01:05:05.958Z,18.20
2023-05-21T01:07:38.937Z,18.20
2023-05-21T01:10:08.485Z,18.20
2023-05-21T01:12:37.788Z,18.20
2023-05-21T01:15:05.636Z,18.20
2023-05-21T01:17:34.122Z,18.20
2023-05-21T01:20:01.878Z,18.20
2023-05-21T01:22:32.329Z,18.10
2023-05-21T01:25:02.672Z,18.10
2023-05-21T01:27:29.579Z,18.10
2023-05-21T01:29:57.128Z,18.10
2023-05-21T01:32:44.384Z,18.10
2023-05-21T01:35:21.654Z,18.00
2023-05-21T01:38:03.362Z,18.00
2023-05-21T01:40:38.284Z,18.10
2023-05-21T01:43:07.037Z,18.10
2023-05-21T01:45:35.393Z,18.00
2023-05-21T01:48:07.139Z,18.10
2023-05-21T01:50:37.087Z,18.00
2023-05-21T01:53:05.800Z,18.10
2023-05-21T01:55:32.729Z,18.10
2023-05-21T01:58:01.960Z,18.00
2023-05-21T02:00:29.448Z,18.10
2023-05-21T02:02:56.505Z,18.10
2023-05-21T02:05:23.424Z,18.00
2023-05-21T02:07:52.148Z,18.10
2023-05-21T02:10:19.089Z,18.00
2023-05-21T02:12:46.069Z,18.10
2023-05-21T02:15:14.367Z,18.10
2023-05-21T02:17:42.417Z,18.10
2023-05-21T02:20:13.520Z,18.10
2023-05-21T02:22:45.845Z,18.10
2023-05-21T02:25:14.502Z,18.10
2023-05-21T02:27:42.400Z,18.10
2023-05-21T02:30:11.355Z,18.10
2023-05-21T02:32:42.307Z,18.10
2023-05-21T02:35:10.152Z,18.10
2023-05-21T02:37:37.556Z,18.00
2023-05-21T02:40:09.604Z,18.00
2023-05-21T02:42:39.467Z,18.00
2023-05-21T02:45:11.503Z,18.00
2023-05-21T02:47:38.793Z,18.00
2023-05-21T02:50:07.568Z,18.00
2023-05-21T02:52:34.565Z,18.00
2023-05-21T02:55:01.321Z,18.00
2023-05-21T02:57:28.033Z,18.00
2023-05-21T02:59:54.706Z,17.90
2023-05-21T03:02:21.543Z,17.90
2023-05-21T03:04:48.854Z,17.80
2023-05-21T03:07:18.055Z,17.90
2023-05-21T03:09:44.773Z,17.90
2023-05-21T03:12:11.829Z,17.90
2023-05-21T03:14:38.645Z,17.80
2023-05-21T03:17:06.118Z,17.80
2023-05-21T03:19:36.399Z,17.80
2023-05-21T03:22:06.477Z,17.80
2023-05-21T03:24:33.515Z,17.80
2023-05-21T03:27:05.912Z,17.80
2023-05-21T03:29:33.007Z,17.80
2023-05-21T03:32:01.367Z,17.80
2023-05-21T03:34:28.231Z,17.80
2023-05-21T03:36:54.928Z,17.80
2023-05-21T03:39:21.676Z,17.80
2023-05-21T03:41:48.400Z,17.80
2023-05-21T03:44:15.100Z,17.80
2023-05-21T03:46:42.521Z,17.80
2023-05-21T03:49:09.358Z,17.80
2023-05-21T03:51:36.082Z,17.80
2023-05-21T03:54:02.814Z,17.80
2023-05-21T03:56:29.468Z,17.90
2023-05-21T03:58:56.203Z,17.80
2023-05-21T04:01:22.902Z,17.90
2023-05-21T04:03:49.731Z,17.90
2023-05-21T04:06:16.975Z,17.90
2023-05-21T04:08:44.506Z,17.90
2023-05-21T04:11:11.289Z,17.90
2023-05-21T04:13:38.744Z,18.00
2023-05-21T04:16:08.829Z,18.00
2023-05-21T04:18:35.871Z,18.00
2023-05-21T04:21:02.639Z,18.00
2023-05-21T04:23:29.338Z,18.00
2023-05-21T04:25:56.031Z,18.10
2023-05-21T04:28:24.136Z,18.10
2023-05-21T04:30:50.867Z,18.20
2023-05-21T04:33:18.257Z,18.10
2023-05-21T04:35:47.260Z,18.20
2023-05-21T04:38:14.187Z,18.20
2023-05-21T04:40:41.896Z,18.20
2023-05-21T04:43:08.958Z,18.20
2023-05-21T04:45:35.940Z,18.20
2023-05-21T04:48:03.706Z,18.30
2023-05-21T04:50:30.670Z,18.30
2023-05-21T04:52:58.809Z,18.30
2023-05-21T04:55:25.954Z,18.40
2023-05-21T04:57:53.108Z,18.40
2023-05-21T05:00:20.358Z,18.50
2023-05-21T05:02:47.248Z,18.50
2023-05-21T05:05:14.044Z,18.50
2023-05-21T05:07:40.796Z,18.60
2023-05-21T05:10:08.161Z,18.60
2023-05-21T05:12:34.875Z,18.60
2023-05-21T05:15:01.674Z,18.70
2023-05-21T05:17:28.405Z,18.70
2023-05-21T05:19:55.088Z,18.80
2023-05-21T05:22:21.797Z,18.80
2023-05-21T05:24:48.487Z,18.80
2023-05-21T05:27:15.162Z,18.90
2023-05-21T05:29:41.860Z,18.90
2023-05-21T05:32:08.805Z,19.00
2023-05-21T05:34:35.553Z,19.00
2023-05-21T05:37:02.899Z,19.10
2023-05-21T05:39:29.711Z,19.10
2023-05-21T05:41:56.576Z,19.10
2023-05-21T05:44:23.292Z,19.20
2023-05-21T05:46:50.045Z,19.30
2023-05-21T05:49:16.856Z,19.40
2023-05-21T05:51:43.571Z,19.40
2023-05-21T05:54:10.249Z,19.40
2023-05-21T05:56:36.932Z,19.50
2023-05-21T05:59:03.753Z,19.50
2023-05-21T06:01:31.936Z,19.50
2023-05-21T06:03:58.692Z,19.50
2023-05-21T06:06:25.602Z,19.50
2023-05-21T06:08:52.368Z,19.60
2023-05-21T06:11:19.280Z,19.60
2023-05-21T06:13:46.173Z,19.60
2023-05-21T06:16:13.073Z,19.70
2023-05-21T06:18:39.834Z,19.70
2023-05-21T06:21:06.621Z,19.70
2023-05-21T06:23:35.384Z,19.80
2023-05-21T06:26:02.158Z,19.90
2023-05-21T06:28:28.831Z,19.90
2023-05-21T06:30:55.621Z,20.00
2023-05-21T06:33:23.261Z,20.00
2023-05-21T06:35:50.109Z,20.10
2023-05-21T06:38:16.793Z,20.20
2023-05-21T06:40:44.673Z,20.30
2023-05-21T06:43:11.373Z,20.40
2023-05-21T06:45:38.290Z,20.40
2023-05-21T06:48:05.689Z,20.50
2023-05-21T06:50:32.434Z,20.60
2023-05-21T06:52:59.146Z,20.80
2023-05-21T06:55:25.832Z,21.00
2023-05-21T06:57:52.529Z,21.20
2023-05-21T07:00:19.324Z,21.40
2023-05-21T07:02:46.159Z,21.60
2023-05-21T07:05:12.948Z,21.70
2023-05-21T07:07:39.637Z,21.90
2023-05-21T07:10:06.839Z,22.00
2023-05-21T07:12:33.703Z,22.10
2023-05-21T07:15:00.543Z,22.30
2023-05-21T07:17:27.332Z,22.40
2023-05-21T07:19:54.042Z,22.20
2023-05-21T07:22:20.955Z,22.00
2023-05-21T07:24:47.638Z,21.80
2023-05-21T07:27:24.786Z,21.60
2023-05-21T07:29:52.338Z,21.60
2023-05-21T07:32:19.067Z,21.60
2023-05-21T07:34:45.826Z,21.40
2023-05-21T07:37:13.771Z,21.40
2023-05-21T07:39:40.921Z,21.30
2023-05-21T07:42:07.647Z,21.20
2023-05-21T07:44:34.354Z,21.20
2023-05-21T07:47:01.091Z,21.20
2023-05-21T07:49:27.791Z,21.20
2023-05-21T07:51:54.462Z,21.20
2023-05-21T07:54:21.272Z,21.30
2023-05-21T07:56:47.988Z,21.20
2023-05-21T07:59:17.012Z,21.20
2023-05-21T08:01:44.217Z,21.20
2023-05-21T08:04:11.119Z,21.30
2023-05-21T08:06:38.015Z,21.40
2023-05-21T08:09:06.193Z,21.50
2023-05-21T08:11:33.182Z,21.60
2023-05-21T08:14:00.186Z,21.60
2023-05-21T08:16:27.037Z,21.90
2023-05-21T08:18:53.906Z,22.00
2023-05-21T08:21:20.855Z,22.20
2023-05-21T08:23:47.584Z,22.40
2023-05-21T08:26:16.457Z,22.50
2023-05-21T08:28:43.452Z,22.60
2023-05-21T08:31:10.294Z,22.50
2023-05-21T08:33:39.749Z,22.50
2023-05-21T08:36:06.974Z,22.60
2023-05-21T08:38:34.649Z,22.70
2023-05-21T08:41:01.431Z,22.60
2023-05-21T08:43:28.640Z,22.60
2023-05-21T08:45:58.643Z,22.80
2023-05-21T08:48:25.410Z,23.00
2023-05-21T08:50:53.441Z,23.10
2023-05-21T08:53:28.156Z,23.20
2023-05-21T08:55:57.392Z,23.10
2023-05-21T08:58:24.632Z,23.10
2023-05-21T09:00:51.505Z,23.30
2023-05-21T09:03:18.353Z,23.20
2023-05-21T09:05:46.025Z,23.30
2023-05-21T09:08:19.879Z,23.10
2023-05-21T09:10:51.693Z,23.40
2023-05-21T09:13:19.460Z,23.80
2023-05-21T09:15:47.371Z,23.80
2023-05-21T09:18:15.122Z,23.90
2023-05-21T09:20:42.101Z,23.90
2023-05-21T09:23:16.721Z,24.20
2023-05-21T09:25:49.136Z,24.50
2023-05-21T09:28:17.224Z,25.00
2023-05-21T09:30:47.975Z,25.30
2023-05-21T09:33:29.351Z,25.60
2023-05-21T09:35:56.146Z,25.90
2023-05-21T09:38:23.853Z,26.10
2023-05-21T09:40:50.652Z,26.20
2023-05-21T09:43:17.652Z,26.30
2023-05-21T09:45:55.337Z,26.40
2023-05-21T09:48:42.872Z,26.40
2023-05-21T09:51:13.670Z,26.40
2023-05-21T09:53:51.358Z,26.50
2023-05-21T09:56:24.338Z,26.50
2023-05-21T09:58:56.793Z,26.40
2023-05-21T10:01:27.514Z,26.40
2023-05-21T10:03:57.081Z,26.50
2023-05-21T10:06:29.629Z,26.60
2023-05-21T10:08:57.545Z,26.60
2023-05-21T10:11:27.045Z,26.50
2023-05-21T10:14:09.154Z,26.70
2023-05-21T10:16:37.603Z,26.70
2023-05-21T10:19:05.855Z,26.80
2023-05-21T10:21:33.507Z,26.90
2023-05-21T10:24:02.875Z,27.00
2023-05-21T10:26:30.724Z,27.40
2023-05-21T10:29:00.290Z,27.60
2023-05-21T10:31:27.868Z,27.70
2023-05-21T10:33:55.551Z,27.90
2023-05-21T10:36:24.101Z,28.00
2023-05-21T10:38:51.419Z,28.00
2023-05-21T10:41:20.187Z,28.10
2023-05-21T10:43:52.908Z,28.20
2023-05-21T10:46:43.906Z,28.40
2023-05-21T10:49:40.938Z,28.30
2023-05-21T10:52:35.303Z,28.20
2023-05-21T10:55:14.137Z,28.10
2023-05-21T10:57:51.098Z,28.00
2023-05-21T11:00:20.490Z,27.70
2023-05-21T11:02:48.817Z,27.50
2023-05-21T11:05:15.770Z,27.50
2023-05-21T11:07:56.592Z,27.60
2023-05-21T11:10:37.244Z,27.60
2023-05-21T11:13:16.947Z,27.70
2023-05-21T11:15:58.728Z,27.80
2023-05-21T11:18:34.067Z,27.80
2023-05-21T11:21:11.293Z,27.60
2023-05-21T11:24:00.997Z,27.80
2023-05-21T11:26:30.996Z,27.80
2023-05-21T11:29:11.584Z,27.90
2023-05-21T11:31:38.862Z,27.70
2023-05-21T11:34:29.313Z,27.60
2023-05-21T11:37:17.776Z,27.60
2023-05-21T11:39:48.758Z,27.60
2023-05-21T11:42:27.783Z,27.60
2023-05-21T11:44:57.946Z,27.70
2023-05-21T11:47:26.290Z,27.70
2023-05-21T11:49:53.663Z,27.70
2023-05-21T11:52:20.521Z,27.70
2023-05-21T11:54:50.611Z,27.80
2023-05-21T11:57:18.765Z,27.80
2023-05-21T11:59:46.507Z,27.80
2023-05-21T12:02:21.234Z,27.90
2023-05-21T12:04:51.476Z,28.00
2023-05-21T12:07:19.453Z,28.00
2023-05-21T12:09:47.519Z,28.00
2023-05-21T12:12:22.564Z,28.20
2023-05-21T12:14:50.954Z,28.30
2023-05-21T12:17:25.627Z,28.30
2023-05-21T12:19:54.364Z,28.40
2023-05-21T12:22:21.441Z,28.40
2023-05-21T12:24:50.991Z,28.40
2023-05-21T12:27:18.281Z,28.40
2023-05-21T12:29:46.608Z,28.50
2023-05-21T12:32:14.807Z,28.50
2023-05-21T12:34:49.145Z,28.60
2023-05-21T12:37:17.025Z,28.60
2023-05-21T12:39:45.259Z,28.40
2023-05-21T12:42:12.981Z,28.30
2023-05-21T12:44:44.804Z,28.10
2023-05-21T12:47:12.356Z,27.90
2023-05-21T12:49:44.671Z,27.60
2023-05-21T12:52:12.859Z,27.50
2023-05-21T12:54:45.506Z,27.50
2023-05-21T12:57:16.957Z,27.30
2023-05-21T12:59:49.508Z,27.30
2023-05-21T13:02:17.095Z,27.20
2023-05-21T13:04:44.009Z,27.00
2023-05-21T13:07:10.817Z,26.80
2023-05-21T13:09:37.494Z,26.90
2023-05-21T13:12:04.453Z,27.10
2023-05-21T13:14:31.214Z,27.30
2023-05-21T13:16:58.057Z,27.40
2023-05-21T13:19:24.805Z,27.40
2023-05-21T13:21:51.613Z,27.40
2023-05-21T13:24:18.306Z,27.40
2023-05-21T13:26:44.998Z,27.50
2023-05-21T13:29:14.731Z,27.60
2023-05-21T13:31:44.706Z,27.60
2023-05-21T13:34:12.964Z,27.50
2023-05-21T13:36:40.733Z,27.40
2023-05-21T13:39:08.029Z,27.30
2023-05-21T13:41:34.769Z,27.90
2023-05-21T13:44:01.560Z,28.10
2023-05-21T13:46:28.409Z,28.00
2023-05-21T13:48:55.205Z,27.90
2023-05-21T13:51:37.495Z,28.00
2023-05-21T13:54:05.242Z,28.00
2023-05-21T13:56:33.579Z,27.90
2023-05-21T13:59:01.342Z,27.70
2023-05-21T14:01:28.145Z,27.40
2023-05-21T14:03:54.987Z,27.30
2023-05-21T14:06:21.719Z,27.40
2023-05-21T14:08:48.617Z,27.50
2023-05-21T14:11:15.678Z,27.50
2023-05-21T14:13:42.404Z,27.40
2023-05-21T14:16:09.151Z,27.40
2023-05-21T14:18:35.874Z,27.40
2023-05-21T14:21:02.538Z,27.40
2023-05-21T14:23:29.309Z,27.50
2023-05-21T14:25:56.014Z,27.70
2023-05-21T14:28:22.783Z,27.80
2023-05-21T14:30:49.470Z,27.90
2023-05-21T14:33:16.335Z,28.00
2023-05-21T14:35:44.226Z,27.90
2023-05-21T14:38:11.215Z,27.90
2023-05-21T14:40:37.969Z,27.80
2023-05-21T14:43:05.670Z,27.80
2023-05-21T14:45:35.315Z,27.90
2023-05-21T14:48:08.185Z,27.80
2023-05-21T14:50:35.881Z,27.60
2023-05-21T14:53:09.853Z,27.70
2023-05-21T14:55:37.236Z,27.70
2023-05-21T14:58:07.981Z,27.60
2023-05-21T15:00:36.129Z,27.60
2023-05-21T15:03:03.241Z,27.60
2023-05-21T15:05:30.154Z,27.40
2023-05-21T15:07:57.950Z,27.30
2023-05-21T15:10:26.896Z,27.20
2023-05-21T15:12:53.919Z,27.10
2023-05-21T15:15:21.245Z,27.00
2023-05-21T15:17:49.063Z,26.90
2023-05-21T15:20:16.474Z,27.00
2023-05-21T15:22:43.266Z,26.90
2023-05-21T15:25:10.555Z,26.90
2023-05-21T15:27:37.260Z,26.80
2023-05-21T15:30:04.755Z,26.80
2023-05-21T15:32:31.658Z,26.70
2023-05-21T15:34:58.581Z,26.70
2023-05-21T15:37:26.440Z,26.70
2023-05-21T15:39:53.945Z,26.60
2023-05-21T15:42:20.615Z,26.60
2023-05-21T15:44:47.802Z,26.50
2023-05-21T15:47:14.627Z,26.40
2023-05-21T15:49:41.311Z,26.50
2023-05-21T15:52:07.981Z,26.50
2023-05-21T15:54:34.657Z,26.60
2023-05-21T15:57:01.367Z,26.50
2023-05-21T15:59:28.188Z,26.50
2023-05-21T16:01:56.142Z,26.50
2023-05-21T16:04:22.832Z,26.40
2023-05-21T16:06:49.551Z,26.40
2023-05-21T16:09:16.314Z,26.40
2023-05-21T16:11:45.985Z,26.40
2023-05-21T16:14:12.754Z,26.40
2023-05-21T16:16:39.681Z,26.30
2023-05-21T16:19:06.529Z,26.20
2023-05-21T16:21:33.765Z,26.10
2023-05-21T16:24:00.632Z,26.10
2023-05-21T16:26:27.377Z,26.10
2023-05-21T16:28:54.085Z,26.10
2023-05-21T16:31:21.132Z,26.10
2023-05-21T16:33:47.966Z,26.00
2023-05-21T16:36:16.263Z,25.90
2023-05-21T16:38:44.658Z,26.00
2023-05-21T16:41:11.440Z,25.90
2023-05-21T16:43:38.234Z,25.90
2023-05-21T16:46:04.983Z,25.90
2023-05-21T16:48:32.720Z,25.80
2023-05-21T16:51:00.158Z,25.80
2023-05-21T16:53:27.845Z,25.80
2023-05-21T16:55:54.629Z,25.70
2023-05-21T16:58:21.374Z,25.80
2023-05-21T17:00:48.137Z,25.70
2023-05-21T17:03:15.142Z,25.70
2023-05-21T17:05:42.043Z,25.60
2023-05-21T17:08:08.820Z,25.60
2023-05-21T17:10:35.585Z,25.60
2023-05-21T17:13:17.607Z,25.50
2023-05-21T17:15:48.093Z,25.50
2023-05-21T17:18:14.818Z,25.40
2023-05-21T17:20:43.538Z,25.40
2023-05-21T17:23:11.526Z,25.40
2023-05-21T17:25:40.310Z,25.30
2023-05-21T17:28:07.413Z,25.30
2023-05-21T17:30:34.259Z,25.20
2023-05-21T17:33:03.655Z,25.20
2023-05-21T17:35:30.652Z,25.10
2023-05-21T17:37:57.583Z,25.10
2023-05-21T17:40:24.912Z,25.10
2023-05-21T17:42:52.585Z,25.00
2023-05-21T17:45:19.571Z,25.00
2023-05-21T17:47:46.430Z,25.00
2023-05-21T17:50:13.451Z,24.90
2023-05-21T17:52:40.289Z,24.90
2023-05-21T17:55:07.896Z,24.80
2023-05-21T17:57:35.999Z,24.80
2023-05-21T18:00:05.129Z,24.70
2023-05-21T18:02:31.998Z,24.70
2023-05-21T18:04:58.718Z,24.60
2023-05-21T18:07:25.609Z,24.60
2023-05-21T18:09:52.391Z,24.50
2023-05-21T18:12:19.123Z,24.50
2023-05-21T18:14:45.823Z,24.40
2023-05-21T18:17:12.987Z,24.40
2023-05-21T18:19:39.769Z,24.30
2023-05-21T18:22:06.720Z,24.20
2023-05-21T18:24:33.682Z,24.20
2023-05-21T18:27:00.572Z,24.10
2023-05-21T18:29:27.244Z,24.10
2023-05-21T18:31:54.274Z,24.00
2023-05-21T18:34:21.057Z,23.90
2023-05-21T18:36:48.111Z,23.90
2023-05-21T18:39:14.897Z,23.80
2023-05-21T18:41:41.659Z,23.70
2023-05-21T18:44:08.440Z,23.60
2023-05-21T18:46:36.206Z,23.60
2023-05-21T18:49:03.025Z,23.60
2023-05-21T18:51:29.801Z,23.50
2023-05-21T18:53:56.495Z,23.40
2023-05-21T18:56:23.214Z,23.30
2023-05-21T18:58:49.973Z,23.30
2023-05-21T19:01:18.016Z,23.10
2023-05-21T19:03:44.771Z,23.10
2023-05-21T19:06:11.535Z,23.00
2023-05-21T19:08:38.969Z,22.90
2023-05-21T19:11:07.288Z,22.90
2023-05-21T19:13:34.507Z,22.80
2023-05-21T19:16:02.217Z,22.70
2023-05-21T19:18:32.306Z,22.60
2023-05-21T19:21:00.426Z,22.60
2023-05-21T19:23:27.325Z,22.60
2023-05-21T19:25:54.247Z,22.50
2023-05-21T19:28:21.138Z,22.40
2023-05-21T19:30:47.834Z,22.30
2023-05-21T19:33:14.668Z,22.30
2023-05-21T19:35:43.050Z,22.20
2023-05-21T19:38:12.744Z,22.10
2023-05-21T19:40:39.488Z,22.10
2023-05-21T19:43:06.187Z,22.10
2023-05-21T19:45:32.924Z,22.00
2023-05-21T19:48:00.016Z,21.90
2023-05-21T19:50:28.612Z,21.90
2023-05-21T19:52:57.157Z,21.80
2023-05-21T19:55:24.735Z,21.80
2023-05-21T19:57:51.710Z,21.70
2023-05-21T20:00:18.898Z,21.70
2023-05-21T20:02:45.970Z,21.60
2023-05-21T20:05:12.925Z,21.50
2023-05-21T20:07:39.730Z,21.50
2023-05-21T20:10:07.332Z,21.50
2023-05-21T20:12:34.144Z,21.40
2023-05-21T20:15:01.131Z,21.40
2023-05-21T20:17:28.743Z,21.30
2023-05-21T20:19:57.160Z,21.30
2023-05-21T20:22:23.982Z,21.20
2023-05-21T20:24:50.940Z,21.20
2023-05-21T20:27:19.420Z,21.10
2023-05-21T20:29:46.327Z,21.10
2023-05-21T20:32:13.268Z,21.00
2023-05-21T20:34:54.248Z,21.00
2023-05-21T20:37:29.082Z,20.90
2023-05-21T20:39:57.715Z,20.90
2023-05-21T20:42:28.598Z,20.90
2023-05-21T20:44:58.745Z,20.80
2023-05-21T20:47:29.691Z,20.80
2023-05-21T20:49:57.802Z,20.70
2023-05-21T20:52:24.913Z,20.70
2023-05-21T20:54:54.550Z,20.60
2023-05-21T20:57:25.998Z,20.50
2023-05-21T20:59:53.332Z,20.50
2023-05-21T21:02:20.769Z,20.50
2023-05-21T21:04:49.021Z,20.50
2023-05-21T21:07:18.063Z,20.40
2023-05-21T21:09:48.975Z,20.40
2023-05-21T21:12:26.162Z,20.30
2023-05-21T21:14:53.781Z,20.30
2023-05-21T21:17:20.815Z,20.30
2023-05-21T21:19:47.582Z,20.30
2023-05-21T21:22:15.964Z,20.20
2023-05-21T21:24:42.662Z,20.20
2023-05-21T21:27:09.365Z,20.20
2023-05-21T21:29:36.201Z,20.20
2023-05-21T21:32:03.038Z,20.20
2023-05-21T21:34:29.732Z,20.10
2023-05-21T21:36:56.480Z,20.10
2023-05-21T21:39:23.169Z,20.00
2023-05-21T21:41:49.933Z,20.00
2023-05-21T21:44:16.616Z,20.00
2023-05-21T21:46:43.367Z,19.90
2023-05-21T21:49:10.052Z,19.90
2023-05-21T21:51:36.930Z,19.90
2023-05-21T21:54:03.993Z,19.90
2023-05-21T21:56:30.859Z,19.80
2023-05-21T21:58:57.568Z,19.90
2023-05-21T22:01:24.744Z,19.80
2023-05-21T22:03:51.460Z,19.80
2023-05-21T22:06:18.219Z,19.80
2023-05-21T22:08:45.044Z,19.80
2023-05-21T22:11:11.823Z,19.80
2023-05-21T22:13:38.580Z,19.80
2023-05-21T22:16:05.645Z,19.80
2023-05-21T22:18:41.096Z,19.80
2023-05-21T22:21:14.256Z,19.80
2023-05-21T22:23:41.308Z,19.80
2023-05-21T22:26:08.892Z,19.80
2023-05-21T22:28:35.662Z,19.80
2023-05-21T22:31:02.655Z,19.80
2023-05-21T22:33:29.552Z,19.80
2023-05-21T22:35:56.851Z,19.80
2023-05-21T22:38:24.338Z,19.80
2023-05-21T22:40:51.213Z,19.70
2023-05-21T22:43:17.971Z,19.70
2023-05-21T22:45:44.672Z,19.70
2023-05-21T22:48:11.423Z,19.60
2023-05-21T22:50:38.561Z,19.60
2023-05-21T22:53:06.514Z,19.60
2023-05-21T22:55:33.277Z,19.60
2023-05-21T22:57:59.994Z,19.50
2023-05-21T23:00:27.103Z,19.50
2023-05-21T23:02:54.665Z,19.50
2023-05-21T23:05:21.676Z,19.50
2023-05-21T23:07:48.401Z,19.40
2023-05-21T23:10:15.135Z,19.40
2023-05-21T23:12:41.874Z,19.40
2023-05-21T23:15:09.730Z,19.40
2023-05-21T23:17:37.250Z,19.40
2023-05-21T23:20:04.769Z,19.30
2023-05-21T23:22:31.630Z,19.40
2023-05-21T23:24:58.413Z,19.40
2023-05-21T23:27:25.158Z,19.40
2023-05-21T23:29:51.924Z,19.40
2023-05-21T23:32:18.742Z,19.50
2023-05-21T23:34:45.451Z,19.40
2023-05-21T23:37:12.455Z,19.50
2023-05-21T23:39:39.796Z,19.50
2023-05-21T23:42:06.875Z,19.50
2023-05-21T23:44:33.568Z,19.50
2023-05-21T23:47:00.251Z,19.50
2023-05-21T23:49:26.944Z,19.50
2023-05-21T23:51:53.770Z,19.50
2023-05-21T23:54:20.500Z,19.50
2023-05-21T23:56:47.462Z,19.50
2023-05-21T23:59:16.259Z,19.50
